Weather reports worldwide

Advertisment
Klippeneck, Germany (10818): temperature & dewpoint: 07.12.2018 10:00:00 - 13.12.2018 10:00:00 (CET)Klippeneck, Germany (10818): temperature 5cm & temperature -5cm: 07.12.2018 10:00:00 - 13.12.2018 10:00:00 (CET)Klippeneck, Germany (10818): temperature -20cm & temperature -100cm: 07.12.2018 10:00:00 - 13.12.2018 10:00:00 (CET)Klippeneck, Germany (10818): wind speed & gusts: 07.12.2018 10:00:00 - 13.12.2018 10:00:00 (CET)Klippeneck, Germany (10818): wind direction: 07.12.2018 10:00:00 - 13.12.2018 10:00:00 (CET)Klippeneck, Germany (10818): visibility: 07.12.2018 10:00:00 - 13.12.2018 10:00:00 (CET)Klippeneck, Germany (10818): sunshine duration: 07.12.2018 10:00:00 - 13.12.2018 10:00:00 (CET)Klippeneck, Germany (10818): precipitation: 07.12.2018 10:00:00 - 13.12.2018 10:00:00 (CET)
Date & Time tt [°C] td [°C] tt 5cm [°C] tt -5cm [°C] tt -20cm [°C] tt -100cm [°C] ff [km/h] ff [kn] fx [km/h] fx [kn] dd vv [km] sd [min] rr [mm]
13.12.2018 10:00:00 -4,1 -6,0 -3,8 0,4 2,1 7,3 16 9 31 17 E 17 0 0,0
13.12.2018 09:00:00 -4,0 -5,6 -4,0 0,4 2,1 7,3 15 8 27 15 E 16 0 0,0
13.12.2018 08:00:00 -4,0 -5,1 -3,8 0,4 2,1 7,3 11 6 25 14 E 11 0 0,0
13.12.2018 07:00:00 -4,2 -5,8 -4,7 0,4 2,1 7,3 16 8 29 16 E 24 0 0,0
13.12.2018 06:00:00 -4,1 -5,6 -4,0 0,4 2,1 7,3 13 7 26 14 E 18 0 0,0
13.12.2018 05:00:00 -4,0 -5,5 -4,4 0,4 2,1 7,3 11 6 24 13 E 19 0 0,0
13.12.2018 04:00:00 -3,9 -5,4 -3,8 0,4 2,1 7,3 13 7 33 18 E 24 0 0,0
13.12.2018 03:00:00 -3,7 -5,5 -3,8 0,4 2,2 7,3 21 11 35 19 E 25 0 0,0
13.12.2018 02:00:00 -3,5 -5,2 -3,6 0,4 2,2 7,4 18 10 33 18 E 27 0 0,0
13.12.2018 01:00:00 -3,4 -4,8 -3,5 0,4 2,2 7,4 17 9 32 18 E 18 0 0,0
13.12.2018 00:00:00 -3,5 -4,8 -3,5 0,4 2,2 7,4 17 9 36 19 E 20 0 0,0
12.12.2018 23:00:00 -3,4 -4,7 -3,8 0,4 2,2 7,4 17 9 29 16 E 17 0 0,0
12.12.2018 22:00:00 -3,3 -4,6 -3,6 0,4 2,2 7,4 14 7 29 16 E 12 0 0,0
12.12.2018 21:00:00 -3,8 -5,1 -4,9 0,4 2,2 7,4 16 9 29 16 E 15 0 0,0
12.12.2018 20:00:00 -4,1 -5,9 -6,3 0,4 2,2 7,4 12 7 27 15 E 28 0 0,0
12.12.2018 19:00:00 -3,7 -5,7 -5,3 0,5 2,2 7,4 16 8 27 15 E 28 0 0,0
12.12.2018 18:00:00 -3,1 -4,5 -4,3 0,5 2,2 7,4 15 8 25 14 ENE 15 0 0,0
12.12.2018 17:00:00 -2,6 -3,6 -2,3 0,5 2,2 7,4 5 3 14 7 NE 8 0 0,0
12.12.2018 16:00:00 -2,3 -3,5 -1,7 0,5 2,2 7,4 5 3 13 7 ENE 9 0 0,0
12.12.2018 15:00:00 -2,1 -3,6 -1,2 0,5 2,2 7,4 6 4 14 7 ENE 20 0 0,0
12.12.2018 14:00:00 -2,3 -4,0 -0,8 0,5 2,2 7,4 8 4 18 10 ENE 25 0 0,0
12.12.2018 13:00:00 -2,3 -3,9 -0,3 0,5 2,2 7,4 5 3 21 12 ENE 19 0 0,0
12.12.2018 12:00:00 -3,0 -4,1 -1,5 0,4 2,2 7,4 12 7 26 14 E 12 0 0,0
12.12.2018 11:00:00 -3,1 -4,0 -1,3 0,4 2,2 7,4 9 5 26 14 E 16 0 0,0
12.12.2018 10:00:00 -3,6 -4,2 -2,9 0,4 2,2 7,5 14 7 26 14 E 4,8 1 0,0
12.12.2018 09:00:00 -3,9 -4,9 -6,4 0,3 2,2 7,5 8 4 14 8 ENE 17 9 0,0
12.12.2018 08:00:00 -4,4 -5,7 -7,0 0,3 2,2 7,5 11 6 15 8 E 40 0 0,0
12.12.2018 07:00:00 -4,6 -5,8 -7,5 0,3 2,3 7,5 10 6 14 8 ENE 31 0 0,0
12.12.2018 06:00:00 -4,7 -5,6 -8,4 0,3 2,3 7,5 10 5 14 7 ENE 33 0 0,0
12.12.2018 05:00:00 -5,1 -5,4 -9,9 0,3 2,3 7,5 4 2 8 4 NNE 28 0 0,0
12.12.2018 04:00:00 -5,3 -6,0 -8,7 0,4 2,3 7,5 6 3 10 5 E 26 0 0,0
12.12.2018 03:00:00 -4,2 -4,9 -6,1 0,4 2,3 7,5 8 4 12 7 ENE 14 0 0,0
12.12.2018 02:00:00 -4,2 -5,5 -5,7 0,4 2,3 7,5 5 3 13 7 NE 29 0 0,0
12.12.2018 01:00:00 -4,9 -6,1 -7,6 0,4 2,3 7,5 6 3 13 7 NNE 35 0 0,0
12.12.2018 00:00:00 -4,5 -5,8 -9,5 0,4 2,3 7,5 4 2 12 6 NNE 38 0 0,0
11.12.2018 23:00:00 -4,1 -5,4 -9,3 0,4 2,3 7,5 5 3 11 6 NNW 42 0 0,0
11.12.2018 22:00:00 -4,6 -5,6 -11,1 0,4 2,4 7,5 4 2 11 6 N 38 0 0,0
11.12.2018 21:00:00 -4,6 -5,5 -11,5 0,5 2,4 7,5 2 1 10 5 N 41 0 0,0
11.12.2018 20:00:00 -3,6 -4,9 -7,6 0,5 2,4 7,5 6 4 11 6 WNW 59 0 0,0
11.12.2018 19:00:00 -2,9 -3,7 -3,9 0,5 2,4 7,5 8 4 13 7 WNW 27 0 0,0
11.12.2018 18:00:00 -2,6 -3,1 -4,1 0,5 2,4 7,6 9 5 14 8 WNW 23 0 0,0
11.12.2018 17:00:00 -2,6 -3,6 -2,6 0,5 2,4 7,6 8 5 12 7 WNW 30 0 0,0
11.12.2018 16:00:00 -1,6 -2,8 0,1 0,5 2,4 7,6 9 5 23 12 NW 28 6 0,0
11.12.2018 15:00:00 -1,5 -3,5 0,1 0,5 2,5 7,6 15 8 24 13 W 51 7 0,0
11.12.2018 14:00:00 -1,6 -2,9 0,1 0,5 2,5 7,6 11 6 20 11 W 30 0 0,0
11.12.2018 13:00:00 -1,7 -2,7 0,1 0,5 2,5 7,6 11 6 21 11 W 16 0 0,0
11.12.2018 12:00:00 -1,9 -2,6 -0,4 0,5 2,5 7,6 9 5 17 9 W 21 0 0,0
11.12.2018 11:00:00 -2,4 -3,4 -0,5 0,5 2,5 7,6 11 6 19 11 WSW 22 0 0,0
11.12.2018 10:00:00 -2,7 -3,6 -1,3 0,5 2,5 7,6 10 5 19 10 WSW 30 0 0,0
11.12.2018 09:00:00 -2,8 -3,5 -1,8 0,6 2,6 7,6 14 8 24 13 W 17 0 0,0
11.12.2018 08:00:00 -2,7 -3,4 -2,0 0,6 2,6 7,6 12 7 22 12 W 15 0 0,0
11.12.2018 07:00:00 -2,7 -3,2 -2,6 0,6 2,6 7,6 15 8 26 14 W 9 0 0,0
11.12.2018 06:00:00 -3,1 -3,7 -3,0 0,6 2,6 7,6 19 10 31 17 WNW 19 0 0,0
11.12.2018 05:00:00 -2,8 -3,4 -1,9 0,6 2,6 7,6 21 11 37 20 WNW 18 0 0,0
11.12.2018 04:00:00 -2,4 -3,0 -2,2 0,6 2,6 7,6 18 10 33 18 WNW 14 0 0,0
11.12.2018 03:00:00 -2,4 -2,9 -2,6 0,6 2,7 7,6 18 10 35 19 WNW 12 0 0,0
11.12.2018 02:00:00 -1,9 -2,3 -1,4 0,6 2,7 7,6 20 11 34 18 WNW 0,8 0 0,0
11.12.2018 01:00:00 -1,2 -1,5 -0,7 0,6 2,7 7,6 18 10 40 22 WNW 0,2 0 0,1
11.12.2018 00:00:00 -1,2 -1,5 -0,8 0,7 2,7 7,7 23 12 38 21 WNW 0,1 0 1,6
10.12.2018 23:00:00 -1,1 -1,3 -1,1 0,7 2,7 7,7 23 13 37 20 W 0,3 0 0,0
10.12.2018 22:00:00 -1,2 -1,2 -1,1 0,8 2,8 7,7 24 13 48 26 WNW 0,1 0 2,2
10.12.2018 21:00:00 -0,8 -1,1 -1,0 0,8 2,8 7,7 27 14 46 25 WNW 0,2 0 0,0
10.12.2018 20:00:00 -0,8 -1,1 -1,0 0,8 2,8 7,7 28 15 50 27 WNW 3,4 0 0,0
10.12.2018 19:00:00 -0,8 -1,0 -0,8 0,8 2,8 7,7 22 12 45 24 W 8 0 0,0
10.12.2018 18:00:00 -0,7 -1,0 -0,8 0,8 2,8 7,7 25 13 39 21 WNW 7 0 0,0
10.12.2018 17:00:00 -0,7 -1,0 -0,8 0,8 2,9 7,7 20 11 38 21 WNW 0,2 0 0,1
10.12.2018 16:00:00 -0,7 -0,9 -0,6 0,7 2,9 7,7 23 13 34 19 WNW 0,1 0 1,2
10.12.2018 15:00:00 -0,3 -0,6 -0,2 0,7 2,9 7,7 16 8 37 20 WNW 0,3 0 0,1
10.12.2018 14:00:00 -0,1 -0,4 0,0 0,7 3,0 7,7 23 13 49 27 W 1,6 0 0,1
10.12.2018 13:00:00 -0,4 -0,8 -0,3 0,7 3,0 7,7 28 15 42 23 WNW 1,5 0 0,0
10.12.2018 12:00:00 -0,4 -0,8 -0,1 0,7 3,0 7,7 21 12 38 20 WNW 1,8 0 0,1
10.12.2018 11:00:00 -0,9 -1,1 -0,3 0,8 3,1 7,7 25 13 54 29 WNW 0,2 0 1,7
10.12.2018 10:00:00 -0,6 -1,0 -0,4 0,8 3,1 7,7 22 12 38 20 WNW 0,3 0 0,2
10.12.2018 09:00:00 -0,9 -1,1 -0,8 0,7 3,2 7,7 25 14 45 25 WNW 0,1 0 0,2
10.12.2018 08:00:00 -1,0 -1,2 -1,1 0,7 3,2 7,7 28 15 48 26 WNW 0,7 0 0,2
10.12.2018 07:00:00 -0,8 -1,0 -0,8 0,7 3,3 7,7 31 17 51 28 WNW 0,2 0 0,3
10.12.2018 06:00:00 -0,4 -0,9 -0,5 0,8 3,3 7,7 25 14 43 23 W 21 0 0,0
10.12.2018 05:00:00 -0,4 -1,0 -0,5 0,8 3,4 7,7 24 13 42 23 W 34 0 0,0
10.12.2018 04:00:00 -0,4 -1,1 -0,5 0,8 3,5 7,8 23 12 41 22 W 39 0 0,0
10.12.2018 03:00:00 -0,5 -1,0 -0,5 0,9 3,5 7,8 27 14 54 29 WNW 14 0 0,0
10.12.2018 02:00:00 0,1 -0,2 0,0 1,0 3,6 7,8 31 17 51 28 WNW 15 0 0,6
10.12.2018 01:00:00 0,3 0,2 0,1 1,3 3,6 7,8 29 15 49 26 WNW 0,1 0 0,5
10.12.2018 00:00:00 0,8 0,7 0,8 1,7 3,6 7,8 32 18 55 30 WNW 0,3 0 0,0
09.12.2018 23:00:00 1,4 1,3 1,3 1,9 3,7 7,8 36 19 53 29 WNW 0,3 0 0,3
09.12.2018 22:00:00 1,2 1,0 1,2 1,9 3,7 7,8 27 15 50 27 WNW 0,8 0 1,3
09.12.2018 21:00:00 2,2 2,1 2,1 2,2 3,7 7,8 29 15 49 26 WNW 0,1 0 1,0
09.12.2018 20:00:00 2,1 2,0 2,1 2,1 3,7 7,8 31 17 44 24 W 0,2 0 0,0
09.12.2018 19:00:00 1,7 1,6 1,7 2,0 3,7 7,8 28 15 46 25 W 0,3 0 0,4
09.12.2018 18:00:00 1,9 1,7 1,8 2,0 3,8 7,8 29 15 48 26 W 0,2 0 0,5
09.12.2018 17:00:00 1,6 1,5 1,5 2,0 3,8 7,8 29 16 51 28 WSW 1,0 0 0,1
09.12.2018 16:00:00 1,4 1,2 1,4 2,0 3,8 7,8 34 19 63 34 W 0,3 0 0,9
09.12.2018 15:00:00 1,8 1,7 1,8 2,2 3,8 7,8 33 18 64 35 W 0,6 0 0,3
09.12.2018 14:00:00 1,4 1,3 1,5 2,1 3,8 7,8 32 17 51 27 WSW 0,2 0 0,8
09.12.2018 13:00:00 1,4 1,2 1,4 2,4 3,8 7,8 35 19 63 34 W 0,3 0 0,4
09.12.2018 12:00:00 2,5 1,2 2,6 2,5 3,8 7,8 37 20 64 35 WSW 33 0 0,1
09.12.2018 11:00:00 2,0 1,4 2,0 2,3 3,9 7,8 34 19 60 33 W 14 0 0,1
09.12.2018 10:00:00 1,8 1,2 1,8 1,9 4,0 7,8 35 19 63 34 W 33 0 0,0
09.12.2018 09:00:00 1,1 0,9 1,0 1,6 4,0 7,8 33 18 79 43 W 0,5 0 0,6
09.12.2018 08:00:00 1,8 1,4 1,5 1,3 4,1 7,8 40 21 64 35 W 25 0 0,0
09.12.2018 07:00:00 0,7 0,5 0,1 1,5 4,2 7,8 38 21 66 35 W 16 0 2,1
09.12.2018 06:00:00 0,9 0,9 0,7 2,5 4,2 7,9 42 23 74 40 WNW 0,6 0 1,9
09.12.2018 05:00:00 3,3 3,1 3,2 3,1 4,2 7,8 40 22 71 38 W 3,5 0 2,3
09.12.2018 04:00:00 3,3 3,2 3,2 3,3 4,2 7,8 50 27 88 47 W 6 0 1,9
09.12.2018 03:00:00 4,0 4,0 3,9 3,3 4,2 7,9 36 19 70 38 WSW 0,5 0 1,1
09.12.2018 02:00:00 4,0 4,0 3,9 3,0 4,2 7,9 42 23 69 37 WSW 2,5 0 1,9
09.12.2018 01:00:00 3,5 3,5 3,5 2,9 4,2 7,9 41 22 75 40 WSW 0,2 0 0,9
09.12.2018 00:00:00 2,8 2,7 2,8 2,7 4,2 7,9 41 22 73 40 WSW 0,3 0 0,7
08.12.2018 23:00:00 2,7 2,5 2,7 2,5 4,2 7,9 39 21 64 35 SW 0,3 0 0,0
08.12.2018 22:00:00 2,5 2,3 2,5 2,5 4,2 7,9 35 19 58 32 SW 0,4 0 0,5
08.12.2018 21:00:00 2,3 1,9 2,2 2,4 4,2 7,9 30 16 57 31 SW 18 0 0,0
08.12.2018 20:00:00 2,4 1,7 2,1 2,3 4,3 7,9 30 16 52 28 SW 22 0 0,1
08.12.2018 19:00:00 2,2 1,3 1,9 2,3 4,3 7,8 32 17 49 26 SW 34 0 0,0
08.12.2018 18:00:00 2,0 1,1 1,7 2,3 4,3 7,9 29 16 51 28 WSW 53 0 0,0
08.12.2018 17:00:00 2,1 1,4 1,7 2,4 4,3 7,8 31 17 50 27 WSW 70 0 0,0
08.12.2018 16:00:00 1,7 1,4 1,6 2,5 4,3 7,8 30 16 49 27 WSW 70 0 0,1
08.12.2018 15:00:00 1,7 1,5 1,8 2,6 4,4 7,8 32 18 51 27 WSW 4,1 0 0,2
08.12.2018 14:00:00 1,1 0,9 1,2 2,4 4,4 7,8 35 19 55 30 WSW 0,2 0 0,3
08.12.2018 13:00:00 0,9 0,5 0,9 2,5 4,4 7,8 30 16 58 31 SW 5 0 0,1
08.12.2018 12:00:00 1,2 0,2 1,2 2,4 4,5 7,8 29 16 59 32 SW 60 1 0,0
08.12.2018 11:00:00 0,9 0,4 1,2 2,2 4,5 7,8 30 16 56 31 SW 35 0 0,0
08.12.2018 10:00:00 0,3 0,0 0,3 1,7 4,6 7,8 27 15 54 29 SW 14 0 0,0
08.12.2018 09:00:00 0,1 -0,2 0,1 1,4 4,8 7,8 23 12 47 26 SW 30 0 0,2
08.12.2018 08:00:00 0,1 -0,8 0,0 1,5 4,9 7,8 30 16 47 26 WSW 1,2 0 0,0
08.12.2018 07:00:00 0,4 -0,9 0,0 1,5 5,0 7,8 29 16 50 27 WSW 70 0 0,1
08.12.2018 06:00:00 0,4 -0,9 0,0 1,6 5,2 7,8 25 13 58 31 WSW 22 0 0,0
08.12.2018 05:00:00 0,2 -1,1 -0,3 1,8 5,3 7,8 32 17 52 28 W 70 0 0,0
08.12.2018 04:00:00 0,3 -0,8 0,0 2,0 5,4 7,8 26 14 53 28 WSW 70 0 0,0
08.12.2018 03:00:00 0,5 -0,4 0,1 2,4 5,6 7,8 23 12 45 25 WSW 70 0 0,2
08.12.2018 02:00:00 0,7 0,3 0,6 2,8 5,7 7,8 23 12 51 28 W 14 0 0,0
08.12.2018 01:00:00 0,6 0,4 0,7 3,1 5,8 7,8 31 17 74 40 W 0,5 0 0,1
08.12.2018 00:00:00 1,6 1,4 1,6 3,6 5,8 7,8 28 15 63 34 W 0,5 0 0,3
07.12.2018 23:00:00 1,7 1,2 1,6 4,2 5,9 7,8 51 28 78 42 WNW 9 0 0,2
07.12.2018 22:00:00 4,4 3,4 3,9 4,8 5,9 7,8 37 20 74 40 W 70 0 0,6
07.12.2018 21:00:00 5,3 4,9 5,0 4,8 5,9 7,8 38 20 60 32 WSW 51 0 0,8
07.12.2018 20:00:00 5,3 4,1 4,8 4,7 6,0 7,8 39 21 63 34 WSW 15 0 0,0
07.12.2018 19:00:00 5,8 3,0 5,4 4,6 6,1 7,8 25 13 41 22 WSW 70 0 0,0
07.12.2018 18:00:00 5,6 3,2 5,0 4,4 6,1 7,8 26 14 39 21 WSW 70 0 0,0
07.12.2018 17:00:00 5,7 3,2 4,7 4,9 6,1 7,8 23 12 45 24 WSW 70 3 0,0
07.12.2018 16:00:00 6,5 3,4 5,7 5,8 6,1 7,8 28 15 51 28 SW 70 29 0,0
07.12.2018 15:00:00 6,9 3,7 7,0 6,2 6,0 7,8 22 12 43 23 WSW 70 2 0,0
07.12.2018 14:00:00 6,4 4,0 6,3 6,3 6,0 7,8 26 14 47 26 W 70 0 0,0
07.12.2018 13:00:00 7,2 4,9 7,4 6,5 5,9 7,8 21 11 42 23 SW 70 0 0,0
07.12.2018 12:00:00 7,0 4,8 7,3 6,1 5,9 7,8 19 10 36 19 SW 70 0 0,0
07.12.2018 11:00:00 6,6 4,6 6,7 6,0 5,9 7,8 26 14 41 22 SW 70 0 0,0
07.12.2018 10:00:00 6,4 4,9 6,7 5,7 5,9 7,8 18 10 36 19 SW 70 0 0,0

tt = temperature
td = dewpoint
tt 5cm = temperature 5cm
tt -5cm = temperature -5cm
tt -20cm = temperature -20cm
tt -100cm = temperature -100cm
ff = wind speed
fx = gusts
dd = wind direction
vv = visibility
sd = sunshine duration
rr = precipitation

Next stations